Other Surface Observations
Issued by NWS Great Falls, MT

Home | Current Version | Previous Version | Text Only | Print | Product List | Glossary On
Versions: 1 2 3 4 5 6 7 8 9 10 11 12 13 14 15 16 17 18 19 20 21 22 23 24 25 26 27 28 29 30 31 32 33 34 35 36 37 38 39 40 41 42 43 44 45 46 47 48 49 50
000
SXUS55 KTFX 291229
OSOTFX
AREA AWOS OBSERVATIONS
NATIONAL WEATHER SERVICE GREAT FALLS MT
0629 AM MDT SUN MAY 29 2016

METAR KPWD 291230Z AUTO 00000KT 10SM 10/06 A2999 RMK PLENTYWOOD
METAR KPO1 291230Z AUTO 00000KT 10SM 07/04 A3002 RMK POPLAR
METAR K1S3 291230Z AUTO 00000KT 10SM 09/07 A3004 RMK FORSYTH
METAR KS71 291230Z AUTO 00000KT 10SM 07/02 A3001 RMK CHINOOK
METAR K38S 291230Z AUTO 00000KT 10SM 03/01 A3011 RMK DEER LODGE
METAR K3U3 291230Z AUTO 19003KT 02/M01 A3011 RMK ANACONDA
METAR K6S5 291230Z AUTO 11004KT 10SM 05/01 A3008 RMK HAMILTON
METAR KS59 291230Z AUTO 00000KT 10SM 03/02 A3005 RMK LIBBY
METAR K88M 291230Z AUTO 00000KT 10SM 06/02 A3003 RMK EUREKA



USA.gov is the U.S. government's official web portal to all federal, state and local government web resources and services.